»·PEaware :: SWA8101 KGEG-KBOI

SWA8101 :: KGEG-KBOI

FLIGHT INFORMATION

Flight Status: Arrived
Operator:
Southwest Airlines
More flights by this operator :: More flights under this callsign
Pilot: John M. (9732)
Aircraft: BOEING 737-700
(B737)
More flights by this aircraft type
Origin: KGEG Spokane Intl
United States
Destination: KBOI Boise Air Terminal/Gowen
United States
More flights between these airports :: More routes between these airports
Route: +GEG6 SUMOQ BEWTE3
File this flight plan on PilotEdge
Remarks:
Altitude:
(Current/Filed)
31,000ft
Speed:
(Current/Filed)
450kts
Departed: 10-May-20 05:47 PM
Arrived: 10-May-20 06:37 PM
Distance/Time
Traveled:
249nm/0:49
Distance/Time
To Go:
Arrived

Flight Plot

Page will automatically refresh every two minutes.


Map Options




Map Legend


Flown Route
Filed Route
Departure Airport
Arrival Airport
Navaid (VOR, NDB)
Fix

Horizontal Profiles

Position Reports

Time Latitude Longitude Heading Altitude Ground
Speed
10-May-20 17:21 47.625889 -117.535058 217 2357ft 0kts
10-May-20 17:22 47.625889 -117.535058 217 2357ft 0kts
10-May-20 17:23 47.625889 -117.535058 217 2357ft 0kts
10-May-20 17:24 47.625889 -117.535058 217 2357ft 0kts
10-May-20 17:25 47.625889 -117.535058 217 2357ft 0kts
10-May-20 17:26 47.625889 -117.535058 217 2357ft 0kts
10-May-20 17:27 47.625889 -117.535058 217 2357ft 0kts
10-May-20 17:28 47.625889 -117.535058 217 2357ft 0kts
10-May-20 17:29 47.625889 -117.535058 217 2357ft 0kts
10-May-20 17:30 47.625889 -117.535058 217 2357ft 0kts
10-May-20 17:31 47.625926 -117.535020 235 2357ft 1kts
10-May-20 17:32 47.626107 -117.534314 224 2355ft 1kts
10-May-20 17:33 47.626292 -117.534379 135 2355ft 0kts
10-May-20 17:34 47.626292 -117.534379 135 2355ft 0kts
10-May-20 17:35 47.626292 -117.534379 135 2355ft 0kts
10-May-20 17:36 47.626266 -117.534341 135 2355ft 0kts
10-May-20 17:37 47.626138 -117.534127 122 2355ft 2kts
10-May-20 17:38 47.624599 -117.532354 207 2355ft 6kts
10-May-20 17:39 47.623339 -117.534164 225 2357ft 10kts
10-May-20 17:41 47.620573 -117.538327 224 2360ft 17kts
10-May-20 17:42 47.617238 -117.543311 224 2370ft 16kts
10-May-20 17:43 47.614134 -117.547969 223 2377ft 14kts
10-May-20 17:44 47.611784 -117.551524 219 2383ft 6kts
10-May-20 17:45 47.611176 -117.551428 139 2385ft 3kts
10-May-20 17:46 47.610369 -117.549635 48 2386ft 4kts
10-May-20 17:47 47.627881 -117.523016 46 3914ft 140kts
10-May-20 17:48 47.661193 -117.473186 42 6481ft 193kts
10-May-20 17:49 47.708144 -117.420762 41 10317ft 228kts
10-May-20 17:50 47.755546 -117.349939 44 12027ft 266kts
10-May-20 17:51 47.800456 -117.252916 83 14939ft 317kts
10-May-20 17:52 47.745535 -117.161071 172 17515ft 351kts
10-May-20 17:53 47.643335 -117.140970 177 20755ft 386kts
10-May-20 17:54 47.534836 -117.121074 177 24121ft 405kts
10-May-20 17:55 47.421046 -117.100244 178 27158ft 420kts
10-May-20 17:56 47.305552 -117.079555 178 30437ft 419kts
10-May-20 17:57 47.191071 -117.058776 178 30980ft 407kts
10-May-20 17:58 47.078856 -117.038707 178 30981ft 409kts
10-May-20 17:59 46.963328 -117.018017 177 30981ft 427kts
10-May-20 17:59 46.865541 -117.000522 177 30983ft 423kts
10-May-20 18:01 46.729186 -116.976206 177 30981ft 425kts
10-May-20 18:02 46.612182 -116.955462 177 30965ft 422kts
10-May-20 18:02 46.515448 -116.938389 177 30916ft 423kts
10-May-20 18:03 46.398594 -116.918054 177 30890ft 423kts
10-May-20 18:04 46.282167 -116.897769 177 30891ft 424kts
10-May-20 18:05 46.165625 -116.877455 177 30889ft 422kts
10-May-20 18:06 46.048960 -116.857185 177 30893ft 423kts
10-May-20 18:07 45.932538 -116.837040 177 30907ft 426kts
10-May-20 18:08 45.811365 -116.816201 176 30981ft 445kts
10-May-20 18:09 45.689162 -116.795293 176 30983ft 443kts
10-May-20 18:10 45.567213 -116.774474 176 30980ft 442kts
10-May-20 18:11 45.445471 -116.753812 177 30983ft 441kts
10-May-20 18:12 45.323702 -116.733206 176 30976ft 439kts
10-May-20 18:13 45.201814 -116.712551 176 30973ft 442kts
10-May-20 18:14 45.080758 -116.692288 176 30971ft 438kts
10-May-20 18:15 44.959458 -116.671935 176 30975ft 441kts
10-May-20 18:16 44.842028 -116.644216 172 30794ft 405kts
10-May-20 18:17 44.734983 -116.616384 173 28995ft 383kts
10-May-20 18:18 44.632012 -116.589955 173 27125ft 372kts
10-May-20 18:19 44.532007 -116.564307 173 25171ft 362kts
10-May-20 18:20 44.434900 -116.539417 174 23230ft 351kts
10-May-20 18:21 44.340093 -116.515243 173 21219ft 342kts
10-May-20 18:22 44.248099 -116.491974 173 19227ft 333kts
10-May-20 18:23 44.157880 -116.469156 173 17235ft 327kts
10-May-20 18:24 44.069455 -116.446852 171 15245ft 321kts
10-May-20 18:25 43.982860 -116.424828 169 13240ft 307kts
10-May-20 18:26 43.903719 -116.403812 169 11235ft 278kts
10-May-20 18:27 43.830146 -116.384732 169 9393ft 256kts
10-May-20 18:28 43.762216 -116.367201 169 8393ft 244kts
10-May-20 18:29 43.697728 -116.345103 152 7999ft 236kts
10-May-20 18:30 43.656727 -116.275664 116 7791ft 236kts
10-May-20 18:31 43.629930 -116.198272 116 7010ft 206kts
10-May-20 18:32 43.603981 -116.128386 126 6798ft 226kts
10-May-20 18:33 43.552453 -116.104418 197 6826ft 197kts
10-May-20 18:34 43.538975 -116.165573 308 4908ft 180kts
10-May-20 18:35 43.562870 -116.215578 296 2857ft 88kts
10-May-20 18:36 43.566392 -116.224050 2 2849ft 0kts
10-May-20 18:37 43.566480 -116.224044 3 2849ft 0kts
10-May-20 18:38 43.566578 -116.222604 115 2850ft 2kts
10-May-20 18:39 43.566720 -116.221005 24 2852ft 4kts
10-May-20 18:40 43.567160 -116.220751 23 2851ft 0kts
10-May-20 18:41 43.567160 -116.220751 23 2851ft 0kts
10-May-20 18:42 43.567160 -116.220751 23 2851ft 0kts
10-May-20 18:43 43.567160 -116.220751 23 2851ft 0kts
10-May-20 18:44 43.567160 -116.220751 23 2851ft 0kts
10-May-20 18:45 43.567160 -116.220751 23 2851ft 0kts

Navigation Log

Ident Type
Flight plan parsing failed, navigation log unavailable